sensor_id;sensor_type;location;lat;lon;timestamp;temperature;humidity
13898;DHT22;7019;50.766;4.474;2022-09-29T00:01:20;6.00;99.90
13898;DHT22;7019;50.766;4.474;2022-09-29T00:03:47;6.00;99.90
13898;DHT22;7019;50.766;4.474;2022-09-29T00:06:16;5.90;99.90
13898;DHT22;7019;50.766;4.474;2022-09-29T00:08:44;5.90;99.90
13898;DHT22;7019;50.766;4.474;2022-09-29T00:11:13;5.90;99.90
13898;DHT22;7019;50.766;4.474;2022-09-29T00:13:41;5.90;99.90
13898;DHT22;7019;50.766;4.474;2022-09-29T00:16:10;5.90;99.90
13898;DHT22;7019;50.766;4.474;2022-09-29T00:18:37;5.80;99.90
13898;DHT22;7019;50.766;4.474;2022-09-29T00:21:07;5.90;99.90
13898;DHT22;7019;50.766;4.474;2022-09-29T00:23:35;5.90;99.90
13898;DHT22;7019;50.766;4.474;2022-09-29T00:26:05;5.90;99.90
13898;DHT22;7019;50.766;4.474;2022-09-29T00:28:34;5.90;99.90
13898;DHT22;7019;50.766;4.474;2022-09-29T00:31:03;5.90;99.90
13898;DHT22;7019;50.766;4.474;2022-09-29T00:33:33;5.80;99.90
13898;DHT22;7019;50.766;4.474;2022-09-29T00:36:03;5.80;99.90
13898;DHT22;7019;50.766;4.474;2022-09-29T00:38:31;5.80;99.90
13898;DHT22;7019;50.766;4.474;2022-09-29T00:40:59;5.80;99.90
13898;DHT22;7019;50.766;4.474;2022-09-29T00:43:52;5.90;99.90
13898;DHT22;7019;50.766;4.474;2022-09-29T00:46:25;5.90;99.90
13898;DHT22;7019;50.766;4.474;2022-09-29T00:48:55;5.80;99.90
13898;DHT22;7019;50.766;4.474;2022-09-29T00:51:24;5.90;99.90
13898;DHT22;7019;50.766;4.474;2022-09-29T00:53:52;5.80;99.90
13898;DHT22;7019;50.766;4.474;2022-09-29T00:56:20;5.80;99.90
13898;DHT22;7019;50.766;4.474;2022-09-29T00:58:48;5.80;99.90
13898;DHT22;7019;50.766;4.474;2022-09-29T01:01:20;5.70;99.90
13898;DHT22;7019;50.766;4.474;2022-09-29T01:03:48;5.50;99.90
13898;DHT22;7019;50.766;4.474;2022-09-29T01:06:20;5.50;99.90
13898;DHT22;7019;50.766;4.474;2022-09-29T01:08:52;5.50;99.90
13898;DHT22;7019;50.766;4.474;2022-09-29T01:11:23;5.60;99.90
13898;DHT22;7019;50.766;4.474;2022-09-29T01:13:50;5.30;99.90
13898;DHT22;7019;50.766;4.474;2022-09-29T01:16:18;4.90;99.90
13898;DHT22;7019;50.766;4.474;2022-09-29T01:18:45;4.70;99.90
13898;DHT22;7019;50.766;4.474;2022-09-29T01:21:21;4.70;99.90
13898;DHT22;7019;50.766;4.474;2022-09-29T01:27:16;4.50;99.90
13898;DHT22;7019;50.766;4.474;2022-09-29T01:30:18;4.80;99.90
13898;DHT22;7019;50.766;4.474;2022-09-29T01:33:03;4.80;99.90
13898;DHT22;7019;50.766;4.474;2022-09-29T01:35:42;4.80;99.90
13898;DHT22;7019;50.766;4.474;2022-09-29T01:38:22;4.80;99.90
13898;DHT22;7019;50.766;4.474;2022-09-29T01:40:56;4.80;99.90
13898;DHT22;7019;50.766;4.474;2022-09-29T01:43:31;4.60;99.90
13898;DHT22;7019;50.766;4.474;2022-09-29T01:46:03;4.90;99.90
13898;DHT22;7019;50.766;4.474;2022-09-29T01:48:38;5.10;99.90
13898;DHT22;7019;50.766;4.474;2022-09-29T01:51:09;5.10;99.90
13898;DHT22;7019;50.766;4.474;2022-09-29T01:53:41;4.90;99.90
13898;DHT22;7019;50.766;4.474;2022-09-29T01:56:13;4.90;99.90
13898;DHT22;7019;50.766;4.474;2022-09-29T01:58:47;4.90;99.90
13898;DHT22;7019;50.766;4.474;2022-09-29T02:01:20;5.00;99.90
13898;DHT22;7019;50.766;4.474;2022-09-29T02:03:51;4.90;99.90
13898;DHT22;7019;50.766;4.474;2022-09-29T02:06:23;5.00;99.90
13898;DHT22;7019;50.766;4.474;2022-09-29T02:08:53;5.10;99.90
13898;DHT22;7019;50.766;4.474;2022-09-29T02:11:21;5.10;99.90
13898;DHT22;7019;50.766;4.474;2022-09-29T02:13:52;5.20;99.90
13898;DHT22;7019;50.766;4.474;2022-09-29T02:16:24;5.00;99.90
13898;DHT22;7019;50.766;4.474;2022-09-29T02:18:56;4.90;99.90
13898;DHT22;7019;50.766;4.474;2022-09-29T02:21:25;5.00;99.90
13898;DHT22;7019;50.766;4.474;2022-09-29T02:23:53;5.10;99.90
13898;DHT22;7019;50.766;4.474;2022-09-29T02:26:23;5.10;99.90
13898;DHT22;7019;50.766;4.474;2022-09-29T02:28:52;5.10;99.90
13898;DHT22;7019;50.766;4.474;2022-09-29T02:31:20;5.10;99.90
13898;DHT22;7019;50.766;4.474;2022-09-29T02:33:47;5.10;99.90
13898;DHT22;7019;50.766;4.474;2022-09-29T02:36:23;5.20;99.90
13898;DHT22;7019;50.766;4.474;2022-09-29T02:38:54;5.00;99.90
13898;DHT22;7019;50.766;4.474;2022-09-29T02:41:38;4.90;99.90
13898;DHT22;7019;50.766;4.474;2022-09-29T02:44:20;4.70;99.90
13898;DHT22;7019;50.766;4.474;2022-09-29T02:47:04;4.70;99.90
13898;DHT22;7019;50.766;4.474;2022-09-29T02:49:52;4.50;99.90
13898;DHT22;7019;50.766;4.474;2022-09-29T02:52:27;4.60;99.90
13898;DHT22;7019;50.766;4.474;2022-09-29T02:55:04;4.80;99.90
13898;DHT22;7019;50.766;4.474;2022-09-29T02:57:39;4.80;99.90
13898;DHT22;7019;50.766;4.474;2022-09-29T03:00:13;5.10;99.90
13898;DHT22;7019;50.766;4.474;2022-09-29T03:02:41;4.90;99.90
13898;DHT22;7019;50.766;4.474;2022-09-29T03:05:11;4.90;99.90
13898;DHT22;7019;50.766;4.474;2022-09-29T03:07:40;4.90;99.90
13898;DHT22;7019;50.766;4.474;2022-09-29T03:10:09;4.90;99.90
13898;DHT22;7019;50.766;4.474;2022-09-29T03:12:36;5.00;99.90
13898;DHT22;7019;50.766;4.474;2022-09-29T03:15:05;4.90;99.90
13898;DHT22;7019;50.766;4.474;2022-09-29T03:17:33;5.00;99.90
13898;DHT22;7019;50.766;4.474;2022-09-29T03:20:01;4.30;99.90
13898;DHT22;7019;50.766;4.474;2022-09-29T03:22:28;3.90;99.90
13898;DHT22;7019;50.766;4.474;2022-09-29T03:24:57;4.50;99.90
13898;DHT22;7019;50.766;4.474;2022-09-29T03:27:24;4.20;99.90
13898;DHT22;7019;50.766;4.474;2022-09-29T03:29:51;4.40;99.90
13898;DHT22;7019;50.766;4.474;2022-09-29T03:32:18;4.40;99.90
13898;DHT22;7019;50.766;4.474;2022-09-29T03:34:45;4.30;99.90
13898;DHT22;7019;50.766;4.474;2022-09-29T03:37:13;4.40;99.90
13898;DHT22;7019;50.766;4.474;2022-09-29T03:39:40;4.60;99.90
13898;DHT22;7019;50.766;4.474;2022-09-29T03:42:08;4.70;99.90
13898;DHT22;7019;50.766;4.474;2022-09-29T03:44:35;4.70;99.90
13898;DHT22;7019;50.766;4.474;2022-09-29T03:47:03;4.80;99.90
13898;DHT22;7019;50.766;4.474;2022-09-29T03:49:30;4.80;99.90
13898;DHT22;7019;50.766;4.474;2022-09-29T03:51:57;5.10;99.90
13898;DHT22;7019;50.766;4.474;2022-09-29T03:54:24;4.80;99.90
13898;DHT22;7019;50.766;4.474;2022-09-29T03:56:52;4.80;99.90
13898;DHT22;7019;50.766;4.474;2022-09-29T03:59:23;4.90;99.90
13898;DHT22;7019;50.766;4.474;2022-09-29T04:01:50;4.90;99.90
13898;DHT22;7019;50.766;4.474;2022-09-29T04:04:17;4.90;99.90
13898;DHT22;7019;50.766;4.474;2022-09-29T04:06:44;5.00;99.90
13898;DHT22;7019;50.766;4.474;2022-09-29T04:09:11;5.00;99.90
13898;DHT22;7019;50.766;4.474;2022-09-29T04:11:39;4.80;99.90
13898;DHT22;7019;50.766;4.474;2022-09-29T04:14:06;4.60;99.90
13898;DHT22;7019;50.766;4.474;2022-09-29T04:16:35;4.50;99.90
13898;DHT22;7019;50.766;4.474;2022-09-29T04:19:02;4.50;99.90
13898;DHT22;7019;50.766;4.474;2022-09-29T04:21:29;4.70;99.90
13898;DHT22;7019;50.766;4.474;2022-09-29T04:23:56;4.80;99.90
13898;DHT22;7019;50.766;4.474;2022-09-29T04:26:23;4.70;99.90
13898;DHT22;7019;50.766;4.474;2022-09-29T04:28:50;4.50;99.90
13898;DHT22;7019;50.766;4.474;2022-09-29T04:31:17;4.40;99.90
13898;DHT22;7019;50.766;4.474;2022-09-29T04:33:46;4.30;99.90
13898;DHT22;7019;50.766;4.474;2022-09-29T04:36:13;4.20;99.90
13898;DHT22;7019;50.766;4.474;2022-09-29T04:38:40;4.10;99.90
13898;DHT22;7019;50.766;4.474;2022-09-29T04:41:07;4.10;99.90
13898;DHT22;7019;50.766;4.474;2022-09-29T04:43:35;4.20;99.90
13898;DHT22;7019;50.766;4.474;2022-09-29T04:46:03;4.30;99.90
13898;DHT22;7019;50.766;4.474;2022-09-29T04:48:31;4.50;99.90
13898;DHT22;7019;50.766;4.474;2022-09-29T04:51:00;4.70;99.90
13898;DHT22;7019;50.766;4.474;2022-09-29T04:53:27;4.70;99.90
13898;DHT22;7019;50.766;4.474;2022-09-29T04:55:54;4.60;99.90
13898;DHT22;7019;50.766;4.474;2022-09-29T04:58:21;4.50;99.90
13898;DHT22;7019;50.766;4.474;2022-09-29T05:00:48;4.60;99.90
13898;DHT22;7019;50.766;4.474;2022-09-29T05:03:16;4.50;99.90
13898;DHT22;7019;50.766;4.474;2022-09-29T05:05:43;4.70;99.90
13898;DHT22;7019;50.766;4.474;2022-09-29T05:08:11;4.70;99.90
13898;DHT22;7019;50.766;4.474;2022-09-29T05:10:38;4.80;99.90
13898;DHT22;7019;50.766;4.474;2022-09-29T05:13:06;4.80;99.90
13898;DHT22;7019;50.766;4.474;2022-09-29T05:15:33;4.80;99.90
13898;DHT22;7019;50.766;4.474;2022-09-29T05:18:01;4.90;99.90
13898;DHT22;7019;50.766;4.474;2022-09-29T05:20:28;4.90;99.90
13898;DHT22;7019;50.766;4.474;2022-09-29T05:22:57;4.90;99.90
13898;DHT22;7019;50.766;4.474;2022-09-29T05:25:26;4.70;99.90
13898;DHT22;7019;50.766;4.474;2022-09-29T05:27:54;4.50;99.90
13898;DHT22;7019;50.766;4.474;2022-09-29T05:30:21;4.30;99.90
13898;DHT22;7019;50.766;4.474;2022-09-29T05:32:48;4.20;99.90
13898;DHT22;7019;50.766;4.474;2022-09-29T05:35:15;4.20;99.90
13898;DHT22;7019;50.766;4.474;2022-09-29T05:37:43;4.20;99.90
13898;DHT22;7019;50.766;4.474;2022-09-29T05:40:11;4.30;99.90
13898;DHT22;7019;50.766;4.474;2022-09-29T05:42:39;4.30;99.90
13898;DHT22;7019;50.766;4.474;2022-09-29T05:45:07;4.20;99.90
13898;DHT22;7019;50.766;4.474;2022-09-29T05:47:35;4.10;99.90
13898;DHT22;7019;50.766;4.474;2022-09-29T05:50:03;4.10;99.90
13898;DHT22;7019;50.766;4.474;2022-09-29T05:52:31;4.20;99.90
13898;DHT22;7019;50.766;4.474;2022-09-29T05:54:58;4.30;99.90
13898;DHT22;7019;50.766;4.474;2022-09-29T05:57:25;4.40;99.90
13898;DHT22;7019;50.766;4.474;2022-09-29T05:59:54;4.50;99.90
13898;DHT22;7019;50.766;4.474;2022-09-29T06:02:21;4.50;99.90
13898;DHT22;7019;50.766;4.474;2022-09-29T06:04:49;4.60;99.90
13898;DHT22;7019;50.766;4.474;2022-09-29T06:07:16;4.70;99.90
13898;DHT22;7019;50.766;4.474;2022-09-29T06:09:43;4.80;99.90
13898;DHT22;7019;50.766;4.474;2022-09-29T06:12:12;4.70;99.90
13898;DHT22;7019;50.766;4.474;2022-09-29T06:14:40;4.70;99.90
13898;DHT22;7019;50.766;4.474;2022-09-29T06:17:08;4.60;99.90
13898;DHT22;7019;50.766;4.474;2022-09-29T06:19:35;4.40;99.90
13898;DHT22;7019;50.766;4.474;2022-09-29T06:22:02;4.30;99.90
13898;DHT22;7019;50.766;4.474;2022-09-29T06:24:30;4.40;99.90
13898;DHT22;7019;50.766;4.474;2022-09-29T06:26:57;4.50;99.90
13898;DHT22;7019;50.766;4.474;2022-09-29T06:29:24;4.80;99.90
13898;DHT22;7019;50.766;4.474;2022-09-29T06:31:51;4.90;99.90
13898;DHT22;7019;50.766;4.474;2022-09-29T06:34:20;5.00;99.90
13898;DHT22;7019;50.766;4.474;2022-09-29T06:36:47;5.10;99.90
13898;DHT22;7019;50.766;4.474;2022-09-29T06:39:32;5.20;99.90
13898;DHT22;7019;50.766;4.474;2022-09-29T06:41:59;5.30;99.90
13898;DHT22;7019;50.766;4.474;2022-09-29T06:44:28;5.30;99.90
13898;DHT22;7019;50.766;4.474;2022-09-29T06:46:57;5.30;99.90
13898;DHT22;7019;50.766;4.474;2022-09-29T06:49:27;5.40;99.90
13898;DHT22;7019;50.766;4.474;2022-09-29T06:51:55;5.40;99.90
13898;DHT22;7019;50.766;4.474;2022-09-29T06:54:22;5.30;99.90
13898;DHT22;7019;50.766;4.474;2022-09-29T06:56:51;5.40;99.90
13898;DHT22;7019;50.766;4.474;2022-09-29T06:59:19;5.50;99.90
13898;DHT22;7019;50.766;4.474;2022-09-29T07:04:39;5.90;99.90
13898;DHT22;7019;50.766;4.474;2022-09-29T07:07:07;4.70;99.90
13898;DHT22;7019;50.766;4.474;2022-09-29T07:12:12;6.40;99.90
13898;DHT22;7019;50.766;4.474;2022-09-29T07:14:40;6.50;99.90
13898;DHT22;7019;50.766;4.474;2022-09-29T07:17:07;6.60;99.90
13898;DHT22;7019;50.766;4.474;2022-09-29T07:24:59;6.30;99.90
13898;DHT22;7019;50.766;4.474;2022-09-29T07:27:27;7.10;99.90
13898;DHT22;7019;50.766;4.474;2022-09-29T07:29:54;7.30;99.90
13898;DHT22;7019;50.766;4.474;2022-09-29T07:33:08;7.40;99.90
13898;DHT22;7019;50.766;4.474;2022-09-29T07:36:11;7.20;99.90
13898;DHT22;7019;50.766;4.474;2022-09-29T07:38:40;7.60;99.90
13898;DHT22;7019;50.766;4.474;2022-09-29T07:41:09;7.70;99.90
13898;DHT22;7019;50.766;4.474;2022-09-29T07:43:36;7.70;99.90
13898;DHT22;7019;50.766;4.474;2022-09-29T07:46:07;7.80;99.90
13898;DHT22;7019;50.766;4.474;2022-09-29T07:48:37;7.80;99.90
13898;DHT22;7019;50.766;4.474;2022-09-29T07:51:06;7.70;99.90
13898;DHT22;7019;50.766;4.474;2022-09-29T07:53:34;7.70;99.90
13898;DHT22;7019;50.766;4.474;2022-09-29T07:56:04;7.70;99.90
13898;DHT22;7019;50.766;4.474;2022-09-29T07:58:37;7.80;99.90
13898;DHT22;7019;50.766;4.474;2022-09-29T08:01:09;7.80;99.90
13898;DHT22;7019;50.766;4.474;2022-09-29T08:03:37;7.80;99.90
13898;DHT22;7019;50.766;4.474;2022-09-29T08:06:05;7.90;99.90
13898;DHT22;7019;50.766;4.474;2022-09-29T08:08:34;7.80;99.90
13898;DHT22;7019;50.766;4.474;2022-09-29T08:11:04;7.80;99.90
13898;DHT22;7019;50.766;4.474;2022-09-29T08:13:32;7.90;99.90
13898;DHT22;7019;50.766;4.474;2022-09-29T08:16:02;7.90;99.90
13898;DHT22;7019;50.766;4.474;2022-09-29T08:18:30;7.90;99.90
13898;DHT22;7019;50.766;4.474;2022-09-29T08:20:58;7.90;99.90
13898;DHT22;7019;50.766;4.474;2022-09-29T08:23:25;8.00;99.90
13898;DHT22;7019;50.766;4.474;2022-09-29T08:25:59;8.10;99.90
13898;DHT22;7019;50.766;4.474;2022-09-29T08:28:29;8.20;99.90
13898;DHT22;7019;50.766;4.474;2022-09-29T08:31:02;8.20;99.90
13898;DHT22;7019;50.766;4.474;2022-09-29T08:33:41;8.20;99.90
13898;DHT22;7019;50.766;4.474;2022-09-29T08:36:09;8.30;99.90
13898;DHT22;7019;50.766;4.474;2022-09-29T08:38:40;8.30;99.90
13898;DHT22;7019;50.766;4.474;2022-09-29T08:41:19;8.30;99.90
13898;DHT22;7019;50.766;4.474;2022-09-29T08:46:31;8.30;99.90
13898;DHT22;7019;50.766;4.474;2022-09-29T08:49:05;8.40;99.90
13898;DHT22;7019;50.766;4.474;2022-09-29T08:51:35;7.90;99.90
13898;DHT22;7019;50.766;4.474;2022-09-29T08:54:12;8.40;99.90
13898;DHT22;7019;50.766;4.474;2022-09-29T08:56:42;8.40;99.90
13898;DHT22;7019;50.766;4.474;2022-09-29T08:59:10;8.40;99.90
13898;DHT22;7019;50.766;4.474;2022-09-29T09:01:51;8.40;99.90
13898;DHT22;7019;50.766;4.474;2022-09-29T09:04:56;8.50;99.90
13898;DHT22;7019;50.766;4.474;2022-09-29T09:07:34;8.60;99.90
13898;DHT22;7019;50.766;4.474;2022-09-29T09:10:17;8.80;99.90
13898;DHT22;7019;50.766;4.474;2022-09-29T09:12:55;8.90;99.90
13898;DHT22;7019;50.766;4.474;2022-09-29T09:15:39;9.20;99.90
13898;DHT22;7019;50.766;4.474;2022-09-29T09:18:33;9.50;99.90
13898;DHT22;7019;50.766;4.474;2022-09-29T09:24:28;11.20;99.90
13898;DHT22;7019;50.766;4.474;2022-09-29T09:27:18;11.90;99.90
13898;DHT22;7019;50.766;4.474;2022-09-29T09:29:50;12.50;99.90
13898;DHT22;7019;50.766;4.474;2022-09-29T09:32:36;13.10;99.90
13898;DHT22;7019;50.766;4.474;2022-09-29T09:38:12;13.80;99.90
13898;DHT22;7019;50.766;4.474;2022-09-29T09:40:44;14.20;99.90
13898;DHT22;7019;50.766;4.474;2022-09-29T09:43:14;14.60;99.90
13898;DHT22;7019;50.766;4.474;2022-09-29T09:45:47;14.70;99.90
13898;DHT22;7019;50.766;4.474;2022-09-29T09:48:20;14.90;99.90
13898;DHT22;7019;50.766;4.474;2022-09-29T09:50:50;15.00;99.90
13898;DHT22;7019;50.766;4.474;2022-09-29T09:53:20;15.00;99.90
13898;DHT22;7019;50.766;4.474;2022-09-29T09:55:54;15.00;99.90
13898;DHT22;7019;50.766;4.474;2022-09-29T09:58:34;14.80;99.90
13898;DHT22;7019;50.766;4.474;2022-09-29T10:01:04;15.30;99.90
13898;DHT22;7019;50.766;4.474;2022-09-29T10:03:32;15.10;99.90
13898;DHT22;7019;50.766;4.474;2022-09-29T10:06:01;15.10;99.90
13898;DHT22;7019;50.766;4.474;2022-09-29T10:08:30;15.20;99.90
13898;DHT22;7019;50.766;4.474;2022-09-29T10:11:04;15.10;99.90
13898;DHT22;7019;50.766;4.474;2022-09-29T10:13:38;15.20;99.90
13898;DHT22;7019;50.766;4.474;2022-09-29T10:16:10;15.40;99.90
13898;DHT22;7019;50.766;4.474;2022-09-29T10:18:40;15.40;99.90
13898;DHT22;7019;50.766;4.474;2022-09-29T10:42:34;14.80;99.90
13898;DHT22;7019;50.766;4.474;2022-09-29T10:45:19;15.10;99.90
13898;DHT22;7019;50.766;4.474;2022-09-29T10:48:07;15.50;99.90
13898;DHT22;7019;50.766;4.474;2022-09-29T10:50:47;15.80;99.90
13898;DHT22;7019;50.766;4.474;2022-09-29T10:53:34;14.90;99.90
13898;DHT22;7019;50.766;4.474;2022-09-29T10:56:14;15.90;99.90
13898;DHT22;7019;50.766;4.474;2022-09-29T11:07:10;15.60;99.90
13898;DHT22;7019;50.766;4.474;2022-09-29T11:09:49;15.60;99.90
13898;DHT22;7019;50.766;4.474;2022-09-29T11:12:31;15.60;99.90
13898;DHT22;7019;50.766;4.474;2022-09-29T11:15:06;15.50;99.90
13898;DHT22;7019;50.766;4.474;2022-09-29T11:20:24;15.00;99.90
13898;DHT22;7019;50.766;4.474;2022-09-29T11:23:08;14.30;99.90
13898;DHT22;7019;50.766;4.474;2022-09-29T11:26:16;14.60;99.90
13898;DHT22;7019;50.766;4.474;2022-09-29T11:29:24;14.10;99.90
13898;DHT22;7019;50.766;4.474;2022-09-29T11:32:07;14.30;99.90
13898;DHT22;7019;50.766;4.474;2022-09-29T11:40:19;13.70;99.90
13898;DHT22;7019;50.766;4.474;2022-09-29T11:43:14;13.10;99.90
13898;DHT22;7019;50.766;4.474;2022-09-29T12:07:07;13.40;99.90
13898;DHT22;7019;50.766;4.474;2022-09-29T12:15:04;13.60;99.90
13898;DHT22;7019;50.766;4.474;2022-09-29T12:25:25;13.70;99.90
13898;DHT22;7019;50.766;4.474;2022-09-29T12:28:01;13.00;99.90
13898;DHT22;7019;50.766;4.474;2022-09-29T12:30:45;13.90;99.90
13898;DHT22;7019;50.766;4.474;2022-09-29T12:33:20;14.10;99.90
13898;DHT22;7019;50.766;4.474;2022-09-29T12:50:10;15.10;99.90
13898;DHT22;7019;50.766;4.474;2022-09-29T12:58:08;15.00;99.90
13898;DHT22;7019;50.766;4.474;2022-09-29T13:00:57;14.70;99.90
13898;DHT22;7019;50.766;4.474;2022-09-29T13:09:45;13.40;99.90
13898;DHT22;7019;50.766;4.474;2022-09-29T13:12:58;13.90;99.90
13898;DHT22;7019;50.766;4.474;2022-09-29T13:16:01;13.70;99.90
13898;DHT22;7019;50.766;4.474;2022-09-29T13:19:17;13.50;99.90
13898;DHT22;7019;50.766;4.474;2022-09-29T14:06:07;13.70;99.90
13898;DHT22;7019;50.766;4.474;2022-09-29T14:08:43;13.70;99.90
13898;DHT22;7019;50.766;4.474;2022-09-29T14:32:41;13.30;99.90
13898;DHT22;7019;50.766;4.474;2022-09-29T14:35:23;14.10;99.90
13898;DHT22;7019;50.766;4.474;2022-09-29T14:38:03;14.10;99.90
13898;DHT22;7019;50.766;4.474;2022-09-29T14:40:34;13.70;99.90
13898;DHT22;7019;50.766;4.474;2022-09-29T14:43:15;14.30;99.90
13898;DHT22;7019;50.766;4.474;2022-09-29T14:46:00;14.30;99.90
13898;DHT22;7019;50.766;4.474;2022-09-29T14:49:02;13.20;99.90
13898;DHT22;7019;50.766;4.474;2022-09-29T14:52:08;14.40;99.90
13898;DHT22;7019;50.766;4.474;2022-09-29T14:55:18;14.40;99.90
13898;DHT22;7019;50.766;4.474;2022-09-29T14:58:36;13.60;99.90
13898;DHT22;7019;50.766;4.474;2022-09-29T15:01:14;14.30;99.90
13898;DHT22;7019;50.766;4.474;2022-09-29T15:03:47;14.20;99.90
13898;DHT22;7019;50.766;4.474;2022-09-29T15:06:23;14.20;99.90
13898;DHT22;7019;50.766;4.474;2022-09-29T15:14:43;13.60;99.90
13898;DHT22;7019;50.766;4.474;2022-09-29T15:17:21;13.50;99.90
13898;DHT22;7019;50.766;4.474;2022-09-29T15:25:53;13.30;99.90
13898;DHT22;7019;50.766;4.474;2022-09-29T15:28:29;13.20;99.90
13898;DHT22;7019;50.766;4.474;2022-09-29T15:50:24;13.30;99.90
13898;DHT22;7019;50.766;4.474;2022-09-29T15:53:09;13.30;99.90
13898;DHT22;7019;50.766;4.474;2022-09-29T15:55:40;13.30;99.90
13898;DHT22;7019;50.766;4.474;2022-09-29T17:00:35;11.60;99.90
13898;DHT22;7019;50.766;4.474;2022-09-29T17:08:21;11.40;99.90
13898;DHT22;7019;50.766;4.474;2022-09-29T17:13:35;11.10;99.90
13898;DHT22;7019;50.766;4.474;2022-09-29T17:16:04;11.00;99.90
13898;DHT22;7019;50.766;4.474;2022-09-29T17:18:35;11.00;99.90
13898;DHT22;7019;50.766;4.474;2022-09-29T17:21:03;11.00;99.90
13898;DHT22;7019;50.766;4.474;2022-09-29T17:44:17;9.90;99.90
13898;DHT22;7019;50.766;4.474;2022-09-29T17:46:44;9.80;99.90
13898;DHT22;7019;50.766;4.474;2022-09-29T17:49:16;9.70;99.90
13898;DHT22;7019;50.766;4.474;2022-09-29T17:51:45;9.60;99.90
13898;DHT22;7019;50.766;4.474;2022-09-29T17:54:29;9.60;99.90
13898;DHT22;7019;50.766;4.474;2022-09-29T17:59:38;9.60;99.90
13898;DHT22;7019;50.766;4.474;2022-09-29T18:02:11;9.50;99.90
13898;DHT22;7019;50.766;4.474;2022-09-29T18:04:39;9.40;99.90
13898;DHT22;7019;50.766;4.474;2022-09-29T18:07:13;9.50;99.90
13898;DHT22;7019;50.766;4.474;2022-09-29T18:09:41;9.30;99.90
13898;DHT22;7019;50.766;4.474;2022-09-29T18:12:09;9.30;99.90
13898;DHT22;7019;50.766;4.474;2022-09-29T18:14:57;10.20;99.90
13898;DHT22;7019;50.766;4.474;2022-09-29T20:35:20;8.00;99.90
